Skip Navigation Links Skip Navigation Links

Current Weather

Central Park, New York

For information only: do not use for flight planning or navigation.
Latest weather
Observation time Saturday, September 22, 2018 10:51 AM EDT
Local time Saturday, September 22, 2018 11:58 AM EDT
Flight conditions Visual Meteorological Conditions
Winds
Wind direction variable
Wind speed 5 mph
Visibility 10 mi.
Sky condition
Ceiling unlimited
Sky clear
Temperature 69°F
Dewpoint 51°F
Altimeter 30.14 in.Hg
Pressure change last 3 hours-0.05 in.Hg
Pressure rising more slowly
Derived measurements
Relative humidity 53%
Density altitude 744 ft.
Sea-level pressure 30.11 in.Hg
Remarks
Fully automated report.
Automated weather observing station with precipitation discriminator.
METAR KNYC 221451Z AUTO VRB04KT 10SM CLR 21/11 A3014 RMK AO2 SLP196 T02060106 51016

Settings

Location code

InnerDrive.Weather 4.0.6770.0 Release CLR 4.0.30319.42000
Copyright ©2018 Inner Drive Technology. All rights reserved. Portions Copyright ©1986-2018 David Braverman.

Find weather

Site navigation


Skip Navigation Links

Place info

Page info

PayPal - The safer, easier way to pay online!

Return home.

Copyright ©2018 Inner Drive Technology. Purveyors of fine, hand-crafted computer software. Page printed 2018-09-22T15:58:38 UTC.